createdAt,value
2022-08-03T00:00:34.168Z,0.03
2022-08-03T00:03:06.247Z,0.03
2022-08-03T00:05:23.652Z,0.04
2022-08-03T00:07:26.285Z,0.03
2022-08-03T00:10:19.593Z,0.03
2022-08-03T00:12:58.420Z,0.03
2022-08-03T00:15:22.325Z,0.03
2022-08-03T00:17:31.410Z,0.03
2022-08-03T00:20:31.379Z,0.03
2022-08-03T00:23:16.458Z,0.03
2022-08-03T00:25:26.927Z,0.03
2022-08-03T00:28:27.851Z,0.03
2022-08-03T00:31:14.079Z,0.04
2022-08-03T00:33:57.859Z,0.03
2022-08-03T00:36:02.575Z,0.03
2022-08-03T00:39:10.261Z,0.03
2022-08-03T00:42:03.163Z,0.03
2022-08-03T00:44:41.132Z,0.03
2022-08-03T00:47:04.340Z,0.03
2022-08-03T00:49:12.650Z,0.03
2022-08-03T00:52:11.863Z,0.03
2022-08-03T00:54:56.230Z,0.03
2022-08-03T00:57:25.830Z,0.03
2022-08-03T00:59:40.809Z,0.03
2022-08-03T01:02:46.375Z,0.03
2022-08-03T01:05:37.090Z,0.03
2022-08-03T01:08:13.279Z,0.03
2022-08-03T01:10:34.650Z,0.03
2022-08-03T01:12:41.128Z,0.03
2022-08-03T01:15:38.563Z,0.03
2022-08-03T01:18:21.063Z,0.03
2022-08-03T01:20:48.831Z,0.03
2022-08-03T01:23:01.755Z,0.03
2022-08-03T01:26:05.570Z,0.03
2022-08-03T01:28:54.587Z,0.03
2022-08-03T01:31:28.759Z,0.03
2022-08-03T01:33:48.341Z,0.03
2022-08-03T01:35:53.109Z,0.03
2022-08-03T01:38:48.554Z,0.03
2022-08-03T01:41:29.412Z,0.03
2022-08-03T01:44:28.962Z,0.03
2022-08-03T01:46:06.572Z,0.03
2022-08-03T01:49:09.094Z,0.03
2022-08-03T01:51:56.177Z,0.03
2022-08-03T01:54:28.160Z,0.03
2022-08-03T01:56:45.772Z,0.03
2022-08-03T01:58:48.852Z,0.03
2022-08-03T02:02:15.013Z,0.03
2022-08-03T02:04:21.375Z,0.03
2022-08-03T02:07:00.980Z,0.03
2022-08-03T02:08:55.109Z,0.03
2022-08-03T02:11:55.240Z,0.03
2022-08-03T02:14:40.851Z,0.03
2022-08-03T02:17:11.536Z,0.03
2022-08-03T02:19:28.742Z,0.03
2022-08-03T02:22:33.954Z,0.04
2022-08-03T02:25:25.939Z,0.07
2022-08-03T02:28:03.095Z,0.04
2022-08-03T02:30:25.314Z,0.04
2022-08-03T02:32:33.010Z,0.04
2022-08-03T02:35:31.362Z,0.04
2022-08-03T02:38:14.797Z,0.05
2022-08-03T02:40:43.754Z,0.05
2022-08-03T02:42:57.818Z,0.05
2022-08-03T02:46:02.574Z,0.06
2022-08-03T02:48:52.774Z,0.07
2022-08-03T02:51:28.032Z,0.08
2022-08-03T02:53:48.599Z,0.1
2022-08-03T02:55:54.272Z,0.12
2022-08-03T02:58:50.915Z,0.15
2022-08-03T03:01:32.804Z,0.2
2022-08-03T03:03:59.677Z,0.26
2022-08-03T03:06:12.143Z,0.33
2022-08-03T03:09:15.242Z,0.46
2022-08-03T03:12:03.507Z,0.68
2022-08-03T03:14:37.143Z,0.98
2022-08-03T03:16:57.837Z,1.32
2022-08-03T03:18:59.876Z,1.8
2022-08-03T03:21:54.747Z,2.92
2022-08-03T03:24:34.843Z,4.4
2022-08-03T03:27:00.031Z,6.7
2022-08-03T03:29:10.389Z,9.47
2022-08-03T03:32:11.770Z,15.89
2022-08-03T03:34:58.179Z,24.27
2022-08-03T03:37:29.790Z,36.85
2022-08-03T03:39:46.841Z,54.98
2022-08-03T03:42:54.631Z,85.76
2022-08-03T03:45:47.575Z,121
2022-08-03T03:48:25.832Z,175.4
2022-08-03T03:50:49.337Z,219.2
2022-08-03T03:52:57.916Z,270.2
2022-08-03T03:55:58.032Z,359.2
2022-08-03T03:58:42.269Z,463
2022-08-03T04:01:12.088Z,540
2022-08-03T04:03:27.015Z,644.1
2022-08-03T04:06:33.026Z,779.8
2022-08-03T04:09:24.159Z,899.5
2022-08-03T04:12:00.469Z,1049.2
2022-08-03T04:14:22.192Z,1151
2022-08-03T04:16:29.068Z,1254
2022-08-03T04:19:26.658Z,1408
2022-08-03T04:22:09.665Z,1535.3
2022-08-03T04:24:37.720Z,1660
2022-08-03T04:26:52.703Z,1780
2022-08-03T04:29:54.960Z,1926
2022-08-03T04:32:45.982Z,2048
2022-08-03T04:35:18.786Z,2164
2022-08-03T04:37:38.390Z,2298
2022-08-03T04:39:43.384Z,2415
2022-08-03T04:42:39.133Z,2554
2022-08-03T04:45:20.022Z,2708
2022-08-03T04:47:46.284Z,2805
2022-08-03T04:49:57.663Z,2922
2022-08-03T04:52:59.814Z,3054
2022-08-03T04:55:47.252Z,3168
2022-08-03T04:58:19.950Z,3284
2022-08-03T05:00:37.769Z,3372
2022-08-03T05:02:40.676Z,3479
2022-08-03T05:05:49.041Z,3619
2022-08-03T05:08:13.718Z,3719
2022-08-03T05:10:37.945Z,3805
2022-08-03T05:12:47.532Z,3886
2022-08-03T05:15:47.815Z,4033
2022-08-03T05:18:33.276Z,4138
2022-08-03T05:21:04.084Z,4288
2022-08-03T05:23:20.022Z,4418
2022-08-03T05:26:26.642Z,4592
2022-08-03T05:29:18.683Z,4736
2022-08-03T05:31:55.853Z,4874
2022-08-03T05:34:18.111Z,4961
2022-08-03T05:36:25.482Z,5038
2022-08-03T05:39:23.897Z,5154
2022-08-03T05:42:07.330Z,5240
2022-08-03T05:44:35.882Z,5376
2022-08-03T05:46:49.855Z,5470
2022-08-03T05:49:54.473Z,5583
2022-08-03T05:52:44.211Z,5708
2022-08-03T05:55:19.357Z,5793
2022-08-03T05:57:39.675Z,5875
2022-08-03T05:59:54.027Z,5936
2022-08-03T06:02:41.351Z,6026
2022-08-03T06:05:22.929Z,6097
2022-08-03T06:07:49.354Z,6172
2022-08-03T06:10:34.815Z,6146
2022-08-03T06:13:03.679Z,6225
2022-08-03T06:15:51.296Z,6369
2022-08-03T06:18:24.192Z,6435
2022-08-03T06:20:42.790Z,6492
2022-08-03T06:22:51.104Z,6538
2022-08-03T06:25:40.796Z,6640
2022-08-03T06:28:52.064Z,6745
2022-08-03T06:30:45.773Z,6830
2022-08-03T06:32:56.026Z,6865
2022-08-03T06:35:56.905Z,6991
2022-08-03T06:38:43.025Z,7075
2022-08-03T06:41:14.385Z,7162
2022-08-03T06:43:30.900Z,7275
2022-08-03T06:46:38.190Z,7219
2022-08-03T06:49:30.616Z,7400
2022-08-03T06:52:08.000Z,7687
2022-08-03T06:54:33.150Z,7802
2022-08-03T06:56:38.369Z,7925
2022-08-03T07:00:06.907Z,8056
2022-08-03T07:02:20.243Z,8158
2022-08-03T07:04:49.011Z,8256
2022-08-03T07:07:03.040Z,8386
2022-08-03T07:10:07.393Z,8276
2022-08-03T07:12:57.217Z,8591
2022-08-03T07:15:38.205Z,8629
2022-08-03T07:17:52.646Z,8770
2022-08-03T07:19:58.451Z,8317
2022-08-03T07:22:54.452Z,8547
2022-08-03T07:25:35.738Z,8832
2022-08-03T07:28:02.513Z,8952
2022-08-03T07:30:14.510Z,8778
2022-08-03T07:33:16.771Z,9195
2022-08-03T07:36:04.479Z,9264
2022-08-03T07:38:37.442Z,9397
2022-08-03T07:40:55.669Z,9472
2022-08-03T07:42:59.307Z,9546
2022-08-03T07:45:53.354Z,9651
2022-08-03T07:48:32.633Z,9735
2022-08-03T07:50:57.253Z,9832
2022-08-03T07:53:07.402Z,9904
2022-08-03T07:56:11.465Z,9607
2022-08-03T07:58:53.271Z,9945
2022-08-03T08:01:24.499Z,10257
2022-08-03T08:03:41.208Z,10496
2022-08-03T08:05:42.505Z,10583
2022-08-03T08:08:34.325Z,10711
2022-08-03T08:11:11.512Z,10803
2022-08-03T08:13:34.006Z,10931
2022-08-03T08:15:42.604Z,11023
2022-08-03T08:18:39.707Z,11161
2022-08-03T08:21:22.950Z,11279
2022-08-03T08:23:57.121Z,11228
2022-08-03T08:26:05.515Z,11130
2022-08-03T08:29:09.454Z,11576
2022-08-03T08:31:58.737Z,11857
2022-08-03T08:34:33.688Z,12006
2022-08-03T08:36:54.047Z,12160
2022-08-03T08:38:59.885Z,12288
2022-08-03T08:41:55.982Z,12528
2022-08-03T08:44:37.605Z,12723
2022-08-03T08:47:04.656Z,12943
2022-08-03T08:49:17.198Z,13102
2022-08-03T08:52:25.527Z,13312
2022-08-03T08:55:08.139Z,12748
2022-08-03T08:57:43.038Z,13230
2022-08-03T09:00:00.395Z,13086
2022-08-03T09:02:04.669Z,13440
2022-08-03T09:04:59.456Z,13184
2022-08-03T09:07:39.032Z,14371
2022-08-03T09:10:10.734Z,14827
2022-08-03T09:12:35.250Z,15211
2022-08-03T09:15:17.182Z,15718
2022-08-03T09:18:00.351Z,16138
2022-08-03T09:20:31.153Z,16500
2022-08-03T09:22:47.326Z,16990
2022-08-03T09:25:03.244Z,16990
2022-08-03T09:27:40.889Z,17840
2022-08-03T09:30:18.963Z,18400
2022-08-03T09:32:40.463Z,18590
2022-08-03T09:34:48.312Z,19060
2022-08-03T09:38:08.636Z,19550
2022-08-03T09:40:28.998Z,20150
2022-08-03T09:42:57.590Z,19170
2022-08-03T09:45:11.535Z,20550
2022-08-03T09:48:15.129Z,20380
2022-08-03T09:51:12.682Z,21270
2022-08-03T09:53:39.021Z,22100
2022-08-03T09:56:32.790Z,19020
2022-08-03T09:58:05.024Z,19450
2022-08-03T10:01:00.687Z,21310
2022-08-03T10:04:02.879Z,24450
2022-08-03T10:06:08.410Z,25080
2022-08-03T10:08:20.593Z,24570
2022-08-03T10:11:22.429Z,23600
2022-08-03T10:14:09.890Z,24240
2022-08-03T10:16:42.815Z,24950
2022-08-03T10:19:01.123Z,25790
2022-08-03T10:21:04.874Z,26230
2022-08-03T10:23:58.581Z,27090
2022-08-03T10:26:37.843Z,28190
2022-08-03T10:29:02.819Z,28320
2022-08-03T10:31:13.505Z,29100
2022-08-03T10:34:13.744Z,30120
2022-08-03T10:36:59.436Z,30200
2022-08-03T10:39:30.822Z,31180
2022-08-03T10:41:48.163Z,33490
2022-08-03T10:43:50.085Z,33620
2022-08-03T10:46:44.887Z,35380
2022-08-03T10:49:35.053Z,37130
2022-08-03T10:51:43.964Z,38960
2022-08-03T10:53:55.134Z,41230
2022-08-03T10:56:51.665Z,45210
2022-08-03T10:59:35.907Z,47240
2022-08-03T11:02:05.547Z,50110
2022-08-03T11:04:20.782Z,50540
2022-08-03T11:06:21.442Z,52650
2022-08-03T11:09:11.972Z,54880
2022-08-03T11:11:48.170Z,57090
2022-08-03T11:14:09.751Z,58690
2022-08-03T11:16:19.862Z,61930
2022-08-03T11:19:13.875Z,63240
2022-08-03T11:21:56.297Z,66100
2022-08-03T11:24:06.562Z,67130
2022-08-03T11:27:05.803Z,65450
2022-08-03T11:29:45.782Z,65120
2022-08-03T11:32:17.913Z,33530
2022-08-03T11:34:29.473Z,68250
2022-08-03T11:37:33.862Z,69690
2022-08-03T11:40:23.883Z,68560
2022-08-03T11:42:59.361Z,70060
2022-08-03T11:45:20.143Z,70360
2022-08-03T11:47:26.297Z,70160
2022-08-03T11:50:22.443Z,70430
2022-08-03T11:53:04.005Z,70810
2022-08-03T11:55:32.077Z,72190
2022-08-03T11:58:57.489Z,74320
2022-08-03T12:00:45.886Z,74970
2022-08-03T12:03:33.659Z,74580
2022-08-03T12:06:06.900Z,74090
2022-08-03T12:08:25.604Z,74480
2022-08-03T12:10:29.795Z,74870
2022-08-03T12:13:57.060Z,75770
2022-08-03T12:16:03.359Z,75810
2022-08-03T12:18:28.287Z,74870
2022-08-03T12:20:38.709Z,75890
2022-08-03T12:23:38.966Z,78110
2022-08-03T12:26:24.665Z,76630
2022-08-03T12:28:55.791Z,77740
2022-08-03T12:31:12.648Z,76280
2022-08-03T12:33:14.945Z,83860
2022-08-03T12:36:06.864Z,72110
2022-08-03T12:38:44.476Z,74190
2022-08-03T12:41:07.541Z,72740
2022-08-03T12:43:16.004Z,75710
2022-08-03T12:46:14.224Z,74460
2022-08-03T12:48:58.199Z,77270
2022-08-03T12:51:27.574Z,75910
2022-08-03T12:53:42.495Z,72660
2022-08-03T12:55:56.462Z,68150
2022-08-03T12:58:34.311Z,69420
2022-08-03T13:01:10.726Z,70810
2022-08-03T13:03:38.757Z,73270
2022-08-03T13:05:38.779Z,83860
2022-08-03T13:08:35.653Z,71180
2022-08-03T13:11:19.101Z,69930
2022-08-03T13:13:46.001Z,71200
2022-08-03T13:15:59.302Z,73330
2022-08-03T13:19:02.257Z,76410
2022-08-03T13:21:53.305Z,74050
2022-08-03T13:24:24.839Z,73480
2022-08-03T13:26:44.204Z,70650
2022-08-03T13:28:49.206Z,71550
2022-08-03T13:31:50.685Z,71860
2022-08-03T13:34:24.195Z,74540
2022-08-03T13:37:08.274Z,76300
2022-08-03T13:39:01.401Z,74480
2022-08-03T13:42:02.358Z,75180
2022-08-03T13:44:48.995Z,75830
2022-08-03T13:47:21.381Z,75930
2022-08-03T13:49:38.707Z,75850
2022-08-03T13:51:41.813Z,76020
2022-08-03T13:54:34.815Z,74440
2022-08-03T13:58:11.314Z,83860
2022-08-03T13:59:37.243Z,83860
2022-08-03T14:01:55.196Z,78040
2022-08-03T14:04:45.874Z,77980
2022-08-03T14:07:30.407Z,75030
2022-08-03T14:10:00.739Z,72560
2022-08-03T14:12:16.603Z,71270
2022-08-03T14:14:17.994Z,70260
2022-08-03T14:17:09.170Z,69610
2022-08-03T14:19:52.796Z,71290
2022-08-03T14:22:07.970Z,74830
2022-08-03T14:24:15.612Z,74710
2022-08-03T14:27:13.150Z,70590
2022-08-03T14:29:56.102Z,66720
2022-08-03T14:32:24.529Z,66820
2022-08-03T14:34:38.638Z,68930
2022-08-03T14:37:42.467Z,66940
2022-08-03T14:40:31.730Z,71200
2022-08-03T14:43:06.703Z,70570
2022-08-03T14:45:27.175Z,66000
2022-08-03T14:47:33.146Z,69590
2022-08-03T14:50:39.300Z,66310
2022-08-03T14:53:10.556Z,68660
2022-08-03T14:55:38.087Z,67270
2022-08-03T14:57:49.818Z,66920
2022-08-03T15:00:52.053Z,64200
2022-08-03T15:03:39.677Z,62250
2022-08-03T15:06:12.766Z,61170
2022-08-03T15:08:31.532Z,60350
2022-08-03T15:10:40.193Z,58710
2022-08-03T15:13:30.005Z,57030
2022-08-03T15:16:09.796Z,55230
2022-08-03T15:18:35.043Z,54640
2022-08-03T15:20:46.826Z,51770
2022-08-03T15:23:46.126Z,48250
2022-08-03T15:26:35.331Z,45730
2022-08-03T15:29:03.820Z,43150
2022-08-03T15:31:20.781Z,39920
2022-08-03T15:33:23.416Z,37230
2022-08-03T15:36:15.891Z,25490
2022-08-03T15:38:53.871Z,11699
2022-08-03T15:41:17.616Z,11182
2022-08-03T15:43:26.280Z,11013
2022-08-03T15:46:29.442Z,10895
2022-08-03T15:49:08.903Z,10828
2022-08-03T15:51:38.866Z,10726
2022-08-03T15:53:54.153Z,10624
2022-08-03T15:55:55.025Z,10521
2022-08-03T15:58:58.811Z,10370
2022-08-03T16:01:23.605Z,10252
2022-08-03T16:03:45.931Z,10117
2022-08-03T16:05:53.969Z,10022
2022-08-03T16:08:52.219Z,9840
2022-08-03T16:11:35.820Z,9738
2022-08-03T16:14:13.903Z,9566
2022-08-03T16:16:19.294Z,9474
2022-08-03T16:19:23.538Z,9351
2022-08-03T16:22:13.349Z,9323
2022-08-03T16:24:48.449Z,9082
2022-08-03T16:27:15.576Z,8936
2022-08-03T16:29:22.556Z,8814
2022-08-03T16:32:10.722Z,8578
2022-08-03T16:34:52.041Z,8409
2022-08-03T16:37:37.443Z,8217
2022-08-03T16:39:30.922Z,8053
2022-08-03T16:42:33.098Z,7887
2022-08-03T16:45:20.774Z,7736
2022-08-03T16:48:01.881Z,7590
2022-08-03T16:50:17.404Z,7447
2022-08-03T16:52:18.019Z,7329
2022-08-03T16:55:10.626Z,7157
2022-08-03T16:57:56.831Z,7014
2022-08-03T17:00:32.739Z,6873
2022-08-03T17:02:26.189Z,6704
2022-08-03T17:05:25.538Z,6594
2022-08-03T17:08:12.680Z,6479
2022-08-03T17:10:42.675Z,6351
2022-08-03T17:12:59.427Z,6202
2022-08-03T17:15:01.539Z,6085
2022-08-03T17:17:55.931Z,5926
2022-08-03T17:20:31.472Z,5795
2022-08-03T17:22:54.569Z,5652
2022-08-03T17:25:03.725Z,5552
2022-08-03T17:28:42.828Z,5404
2022-08-03T17:30:45.694Z,5291
2022-08-03T17:33:20.182Z,5169
2022-08-03T17:35:34.260Z,5063
2022-08-03T17:38:35.344Z,4898
2022-08-03T17:41:25.880Z,4776
2022-08-03T17:44:14.741Z,4647
2022-08-03T17:46:23.328Z,4506
2022-08-03T17:48:30.265Z,4400
2022-08-03T17:51:27.314Z,4240
2022-08-03T17:54:18.270Z,4096
2022-08-03T17:56:45.889Z,3948
2022-08-03T17:58:52.461Z,3799
2022-08-03T18:01:57.001Z,3609
2022-08-03T18:04:43.662Z,3453
2022-08-03T18:07:18.041Z,3297
2022-08-03T18:10:02.862Z,3133
2022-08-03T18:11:43.031Z,3000
2022-08-03T18:14:38.489Z,2800
2022-08-03T18:17:19.301Z,2634
2022-08-03T18:20:01.512Z,2460
2022-08-03T18:22:02.352Z,2332
2022-08-03T18:24:59.355Z,2136
2022-08-03T18:27:47.549Z,1945
2022-08-03T18:30:19.642Z,1779
2022-08-03T18:32:37.785Z,1643
2022-08-03T18:34:53.204Z,1511.6
2022-08-03T18:37:51.788Z,1322.2
2022-08-03T18:40:14.513Z,1171.8
2022-08-03T18:42:38.949Z,1028.4
2022-08-03T18:44:53.615Z,912.3
2022-08-03T18:47:52.214Z,758.4
2022-08-03T18:50:35.156Z,621.9
2022-08-03T18:53:15.443Z,519
2022-08-03T18:55:25.824Z,443
2022-08-03T18:57:30.144Z,370.8
2022-08-03T19:00:17.122Z,274.7
2022-08-03T19:02:54.748Z,210.3
2022-08-03T19:05:17.669Z,157.72
2022-08-03T19:07:25.914Z,124.2
2022-08-03T19:10:24.588Z,86.12
2022-08-03T19:13:09.629Z,62.22
2022-08-03T19:15:41.581Z,43.68
2022-08-03T19:17:53.437Z,32.25
2022-08-03T19:20:57.458Z,18.91
2022-08-03T19:23:47.722Z,12.88
2022-08-03T19:26:30.110Z,8.68
2022-08-03T19:28:44.574Z,5.8
2022-08-03T19:30:53.558Z,4.25
2022-08-03T19:33:56.277Z,2.7
2022-08-03T19:36:29.792Z,1.87
2022-08-03T19:38:57.268Z,1.34
2022-08-03T19:41:09.968Z,1.03
2022-08-03T19:44:13.286Z,0.69
2022-08-03T19:47:01.832Z,0.5
2022-08-03T19:49:59.914Z,0.38
2022-08-03T19:51:56.752Z,0.31
2022-08-03T19:53:59.590Z,0.29
2022-08-03T19:56:54.464Z,0.25
2022-08-03T19:59:37.849Z,0.22
2022-08-03T20:02:00.761Z,0.21
2022-08-03T20:04:11.898Z,0.19
2022-08-03T20:07:13.427Z,0.18
2022-08-03T20:10:01.468Z,0.17
2022-08-03T20:12:38.692Z,0.16
2022-08-03T20:14:50.292Z,0.16
2022-08-03T20:16:53.421Z,0.16
2022-08-03T20:19:46.863Z,0.15
2022-08-03T20:22:27.727Z,0.13
2022-08-03T20:24:52.770Z,0.12
2022-08-03T20:26:59.435Z,0.12
2022-08-03T20:30:05.087Z,0.12
2022-08-03T20:32:44.443Z,0.12
2022-08-03T20:35:15.029Z,0.12
2022-08-03T20:37:30.891Z,0.12
2022-08-03T20:40:38.020Z,0.12
2022-08-03T20:43:28.746Z,0.12
2022-08-03T20:46:28.445Z,0.12
2022-08-03T20:48:27.693Z,0.12
2022-08-03T20:50:35.403Z,0.12
2022-08-03T20:53:57.590Z,0.12
2022-08-03T20:56:16.741Z,0.12
2022-08-03T20:58:50.313Z,0.12
2022-08-03T21:00:59.717Z,0.12
2022-08-03T21:04:04.442Z,0.12
2022-08-03T21:06:54.127Z,0.12
2022-08-03T21:09:33.303Z,0.12
2022-08-03T21:11:49.829Z,0.12
2022-08-03T21:13:55.596Z,0.12
2022-08-03T21:16:51.998Z,0.12
2022-08-03T21:19:33.832Z,0.12
2022-08-03T21:22:00.534Z,0.12
2022-08-03T21:24:12.907Z,0.12
2022-08-03T21:27:15.676Z,0.12
2022-08-03T21:30:03.705Z,0.11
2022-08-03T21:32:37.197Z,0.12
2022-08-03T21:34:55.843Z,0.12
2022-08-03T21:36:59.859Z,0.12
2022-08-03T21:39:54.571Z,0.12
2022-08-03T21:42:34.375Z,0.12
2022-08-03T21:44:59.506Z,0.11
2022-08-03T21:47:09.876Z,0.12
2022-08-03T21:50:11.036Z,0.12
2022-08-03T21:52:57.236Z,0.11
2022-08-03T21:55:28.774Z,0.11
2022-08-03T21:57:45.759Z,0.11
2022-08-03T21:59:48.019Z,0.11
2022-08-03T22:02:42.729Z,0.12
2022-08-03T22:05:18.866Z,0.11
2022-08-03T22:07:42.248Z,0.11
2022-08-03T22:09:51.472Z,0.11
2022-08-03T22:12:50.255Z,0.12
2022-08-03T22:15:34.851Z,0.11
2022-08-03T22:17:54.496Z,0.11
2022-08-03T22:20:45.261Z,0.11
2022-08-03T22:23:30.954Z,0.03
2022-08-03T22:26:02.204Z,0.03
2022-08-03T22:28:18.665Z,0.03
2022-08-03T22:31:30.390Z,0.03
2022-08-03T22:34:18.108Z,0.03
2022-08-03T22:36:56.527Z,0.03
2022-08-03T22:39:22.849Z,0.03
2022-08-03T22:41:26.957Z,0.03
2022-08-03T22:44:25.894Z,0.03
2022-08-03T22:47:10.034Z,0.03
2022-08-03T22:49:39.430Z,0.03
2022-08-03T22:51:54.275Z,0.03
2022-08-03T22:54:59.707Z,0.03
2022-08-03T22:57:50.992Z,0.03
2022-08-03T23:00:26.498Z,0.03
2022-08-03T23:02:47.737Z,0.03
2022-08-03T23:04:54.181Z,0.03
2022-08-03T23:07:51.468Z,0.03
2022-08-03T23:10:33.993Z,0.03
2022-08-03T23:13:01.680Z,0.03
2022-08-03T23:15:14.556Z,0.03
2022-08-03T23:18:18.271Z,0.03
2022-08-03T23:21:09.247Z,0.03
2022-08-03T23:23:43.813Z,0.03
2022-08-03T23:26:00.916Z,0.03
2022-08-03T23:28:06.097Z,0.03
2022-08-03T23:31:00.996Z,0.03
2022-08-03T23:33:41.737Z,0.03
2022-08-03T23:36:09.405Z,0.03
2022-08-03T23:38:22.600Z,0.03
2022-08-03T23:41:20.629Z,0.03
2022-08-03T23:44:07.840Z,0.03
2022-08-03T23:46:40.209Z,0.03
2022-08-03T23:48:57.722Z,0.03
2022-08-03T23:51:00.695Z,0.03
2022-08-03T23:53:56.666Z,0.03
2022-08-03T23:56:33.067Z,0.03
2022-08-03T23:58:57.280Z,0.03
